Matoaca, Virginia
Current Conditions -  °F | °C
As of 5:15 PM on Monday 26 Jan 2015 (Local Time) from KPTB Reporting Station
Overcast Overcast  
Wind Chill: 35°   Ceiling: 700
Heat Index: 41°   Visibility: 7mi
Dew Point: 38°   Wind: 12mph
Humidity: 90%   Direction: 350°N
Pressure: 29.65"   Gusts: NA
Location:  37.2163°N, 77.4783°W
Report Text: KPTB 262215Z AUTO 35010KT 7SM OVC007 05/04 A2965 RMK AO2 LTG DSNT NW T00510036
Loading
Personal Weather Stations






























Interactive Weather Map New forecast layout! Learn more

10-Day Weather Forecast

Advertisements
Track Severe Weather on mobile